x

9444090 - Port Angeles, Wa (ptaw1) Weather Station

5:30 - Tue 27th Jan 2015 All times are PST. -8 hours from GMT.

  • Wind
    2mph, 3mph gusts
  • Sea Temp 48°f
  • Aire Temp 48°f
  • Sea Pressure 1015.1mb
  • 9444090 - Port Angeles, Wa
  • 9444090 - Port Angeles, Wa

More Historic Weather Station data

Upgrade to MSW Pro to gain access to the past 30 days of data for over 8000 Wavebouys and Weather Stations around the globe.

Join Pro

Comparision Forecast

View Surf forecast
   
mar 01/27 5:30 2 3 mph 1015.1mb 48f 48f
5:24 3 5 mph 1015mb 48f 48f
5:18 5 6 mph 1015mb 48f 48f
5:12 5 6 mph 1015mb 48f 48f
5:06 2 5 mph 1015.1mb 48f 48f
5:00 2 3 mph 1015.1mb 48f 49f
4:36 3 5 mph 1015.1mb 48f 49f
4:30 3 5 mph 1015.2mb 48f 49f
4:24 5 6 mph 1015.2mb 48f 49f
4:18 3 6 mph 1015.2mb 48f 49f
4:12 3 7 mph 1015.2mb 48f 50f
4:06 3 6 mph 1015.1mb 48f 51f
4:00 3 6 mph 1015mb 48f 50f
3:36 3 7 mph 1014.9mb 48f 51f
3:30 5 9 mph 1014.9mb 48f 51f
3:24 7 8 mph 1014.9mb 48f 50f
3:18 7 9 mph 1014.9mb 48f 50f
3:12 7 9 mph 1014.9mb 48f 50f
3:06 7 9 mph 1014.9mb 48f 50f
3:00 6 7 mph 1014.9mb 48f 50f
1:36 5 9 mph 1014.8mb 48f 50f
1:30 8 11 mph 1014.7mb 48f 50f
1:24 7 10 mph 1014.7mb 48f 50f
1:18 6 10 mph 1014.7mb 48f 50f
1:12 7 11 mph 1014.5mb 48f 50f
1:06 7 11 mph 1014.6mb 48f 50f
1:00 6 8 mph 1014.6mb 48f 47f
12:36 3 6 mph 1014.4mb 48f 47f
12:30 6 8 mph 1014.4mb 48f 47f
12:24 6 8 mph 1014.3mb 48f 47f
12:18 7 8 mph 1014.3mb 48f 46f
12:12 6 7 mph 1014.3mb 48f 46f
12:06 6 8 mph 1014.3mb 48f 46f
12:00 7 8 mph 1014.2mb 48f 46f
lun 01/26 11:36 6 8 mph 1014.4mb 48f 46f
11:30 8 10 mph 1014.4mb 48f 46f
11:24 9 11 mph 1014.3mb 48f 45f
11:18 9 11 mph 1014.3mb 48f 45f
11:12 9 10 mph 1014.3mb 48f 45f
11:06 10
mph
1014.4mb 48f 45f
11:00 9 10 mph 1014.4mb 48f 45f
10:36 10 11 mph 1014.3mb 48f 45f
10:30 9 13 mph 1014.3mb 48f 45f
10:24 9 11 mph 1014.2mb 48f 45f
10:18 9 10 mph 1014.3mb 48f 45f
10:12 8 9 mph 1014.3mb 48f 45f
10:06 7 8 mph 1014.2mb 48f 46f
10:00 7 8 mph 1014.3mb 48f 46f
9:36 6 8 mph 1014mb 48f 46f
9:30 8 9 mph 1013.9mb 48f 46f
9:24 7 9 mph 1013.9mb 48f 46f
9:18 6 8 mph 1013.8mb 48f 46f
9:12 7 9 mph 1013.7mb 48f 46f
9:06 5 8 mph 1013.7mb 48f 47f
9:00 6 8 mph 1013.8mb 48f 46f
8:36 5 6 mph 1013.6mb 48f 46f
8:30 5 6 mph 1013.6mb 48f 46f
8:24 5 6 mph 1013.7mb 48f 46f
8:18 5 8 mph 1013.7mb 48f 46f
8:12 5 8 mph 1013.6mb 48f 47f
8:06 5 8 mph 1013.4mb 48f 47f
8:00 7 8 mph 1013.5mb 48f 46f
7:36 6 7 mph 1013.4mb 48f 46f
7:30 7
mph
1013.4mb 48f 46f
7:24 6
mph
1013.4mb 48f 47f
7:18 3 6 mph 1013.4mb 48f 47f
7:12 5 7 mph 1013.4mb 48f 47f
7:06 6 10 mph 1013.3mb 48f 47f
7:00 8 9 mph 1013.3mb 48f 47f
6:36 5 7 mph 1013.2mb 48f 47f
6:30 3 5 mph 1013.2mb 48f 47f
6:24 3 5 mph 1013.2mb 48f 48f
6:18 5 8 mph 1013.1mb 48f 48f
6:12 5 6 mph 1013.1mb 48f 48f
6:06 5 7 mph 1013.2mb 48f 48f
6:00 5 8 mph 1013.1mb 48f 49f
5:36 5 7 mph 1013mb 48f 48f
5:30 5 8 mph 1013.1mb 48f 48f
5:24 2 5 mph 1013mb 48f 48f
5:18 3 8 mph 1013mb 48f 48f
5:12 3 7 mph 1013mb 48f 48f
5:06 6 8 mph 1013.2mb 48f 48f
5:00 5 9 mph 1013.2mb 48f 48f
4:36 5 7 mph 1013.1mb 48f 47f
4:30 2 6 mph 1013.1mb 48f 47f
4:24 3 8 mph 1013mb 48f 47f
4:18 8 10 mph 1012.9mb 48f 47f
4:12 8 11 mph 1012.9mb 48f 47f
4:06 8 10 mph 1012.8mb 48f 47f
4:00 9 10 mph 1012.7mb 48f 47f
3:36 5 6 mph 1012.6mb 48f 47f
3:30 5 6 mph 1012.6mb 48f 48f
3:24 3 5 mph 1012.6mb 48f 48f
3:18 2 3 mph 1012.6mb 48f 48f
3:12 2 6 mph 1012.6mb 48f 48f
3:06 2 3 mph 1012.4mb 48f 48f
3:00 2 6 mph 1012.4mb 48f 48f
2:36 3 5 mph 1012.2mb 48f 47f
2:30 3 5 mph 1012.1mb 48f 48f
2:24 2 3 mph 1012.1mb 48f 48f
2:18 2
mph
1012mb 48f 48f
2:12 1 2 mph 1012mb 48f 48f
2:06  -  2 mph 1012.1mb 48f 48f
2:00 1 2 mph 1012.1mb 48f 48f
1:36  -  3 mph 1012.4mb 48f 48f
1:30 3 6 mph 1012.5mb 48f 47f
1:24 7 9 mph 1012.7mb 48f 48f
1:18 3 6 mph 1012.6mb 48f 48f
1:12 5 8 mph 1012.8mb 48f 47f
1:06 7 9 mph 1012.8mb 48f 47f
1:00 7 11 mph 1013mb 48f 47f
12:36 7 8 mph 1013.2mb 48f 47f
12:30 7 9 mph 1013.1mb 48f 47f
12:24 5 8 mph 1013mb 48f 47f
12:18 6
mph
1012.8mb 48f 47f
12:12 2 5 mph 1012.9mb 48f 47f
12:06 3 5 mph 1012.9mb 48f 47f
12:00 3 5 mph 1012.9mb 48f 47f
11:36 1 2 mph 1013mb 48f 46f
11:30  -  1 mph 1012.9mb 48f 47f
11:24 3 5 mph 1013.1mb 48f 47f
11:18 3
mph
1013.3mb 48f 46f
11:12 3
mph
1013.5mb 48f 46f
11:06 2 3 mph 1013.6mb 48f 46f
11:00  -  2 mph 1013.5mb 48f 46f
10:36 2 6 mph 1013.5mb 48f 46f
10:30  -  2 mph 1013.4mb 48f 46f
10:24  -  2 mph 1013.4mb 48f 46f
10:18 2 5 mph 1013.2mb 48f 46f
10:12 1 3 mph 1013.3mb 48f 46f
10:06 3
mph
1013.3mb 48f 46f
10:00 2 5 mph 1013.2mb 48f 46f
9:36  -  2 mph 1013.3mb 48f 46f
9:30 2 3 mph 1013.2mb 48f 46f
9:24 1 5 mph 1013.1mb 48f 46f
9:18 2 5 mph 1013.1mb 48f 46f
9:12 1 3 mph 1013mb 48f 46f
9:06 3 6 mph 1012.9mb 48f 46f
9:00 5 6 mph 1013mb 48f 46f
8:36 7 9 mph 1012.6mb 48f 46f
8:30 7 8 mph 1012.7mb 48f 45f
8:24 7 9 mph 1012.7mb 48f 46f
8:18 8 10 mph 1012.7mb 48f 46f
8:12 7 10 mph 1012.5mb 48f 46f
8:06 7 10 mph 1012.5mb 48f 46f
8:00 6 7 mph 1012.5mb 48f 46f
7:36 5 6 mph 1012.7mb 48f 45f
7:30 1 5 mph 1012.8mb 48f 45f
7:24 2 6 mph 1012.8mb 48f 45f
7:18 2 3 mph 1012.8mb 48f 45f
7:12 2 3 mph 1012.8mb 48f 45f
7:06 1 6 mph 1012.7mb 48f 45f
7:00 2 5 mph 1012.6mb 48f 45f
6:36 5 6 mph 1012.5mb 48f 46f
6:30 3 5 mph 1012.6mb 48f 46f
6:24 3 5 mph 1012.9mb 48f 46f
6:18 3 5 mph 1013mb 48f 47f
6:12 3 6 mph 1013.1mb 48f 47f
6:06 5 6 mph 1013mb 48f 47f
6:00 2 5 mph 1013.1mb 48f 47f
5:54 5 6 mph 1013.2mb 48f 47f
5:48 3 6 mph 1013.4mb 48f 47f
5:36 6 8 mph 1013.7mb 48f 47f
5:30 6 9 mph 1013.8mb 48f 48f
5:24 6 8 mph 1014mb 48f 48f
5:18 6 7 mph 1014.1mb 48f 48f
5:12 2 5 mph 1014mb 48f 48f
5:06 3 6 mph 1013.8mb 48f 48f
5:00 2 3 mph 1013.4mb 48f 47f
4:54 3 5 mph 1013.3mb 48f 47f
4:48 2 3 mph 1013.3mb 48f 48f
4:36 2 3 mph 1013.2mb 48f 47f
4:30 3
mph
1013.3mb 48f 47f
4:24 2 3 mph 1013.3mb 48f 47f
4:18 2 5 mph 1013.3mb 48f 47f
4:12 3 5 mph 1013.3mb 48f 47f
4:06 5
mph
1013.1mb 48f 47f
4:00 2 5 mph 1013mb 48f 47f
3:54 3
mph
1013mb 48f 47f
3:48 2 3 mph 1013.1mb 48f 47f
3:36 3 5 mph 1013.2mb 48f 47f
3:30 3 5 mph 1013.2mb 48f 47f
3:24 3 5 mph 1013.3mb 48f 47f
3:18 5 6 mph 1013.4mb 48f 47f
3:12 5 6 mph 1013.6mb 48f 48f
3:06 3 6 mph 1013.6mb 48f 48f
3:00 5 7 mph 1013.7mb 48f 48f
2:54 6
mph
1013.7mb 48f 48f
2:48 5 7 mph 1013.7mb 48f 48f
2:36 3 6 mph 1013.9mb 48f 48f
2:30 5 6 mph 1014mb 48f 48f
2:24 6 7 mph 1014mb 48f 48f
2:18 3 6 mph 1014mb 48f 49f
2:12 3 5 mph 1014.1mb 48f 49f
2:06 3 5 mph 1014.1mb 48f 49f
2:00 3 6 mph 1014.2mb 48f 49f
1:54 5 6 mph 1014.2mb 48f 50f
1:48 5 6 mph 1014.2mb 48f 50f
1:36 3 5 mph 1014.4mb 48f 50f
1:30 3 6 mph 1014.4mb 48f 50f
1:24 5 7 mph 1014.3mb 48f 50f
1:18 6 7 mph 1014.3mb 48f 50f
1:12 5 6 mph 1014.4mb 48f 50f
1:06 6
mph
1014.5mb 48f 50f
1:00 6 7 mph 1014.6mb 48f 50f
12:54 5 6 mph 1014.7mb 48f 50f
12:48 5 7 mph 1014.7mb 48f 50f
12:36 6 7 mph 1014.9mb 48f 50f
12:30 6 7 mph 1014.9mb 48f 50f
12:24 7 8 mph 1015mb 48f 50f
12:18 6 7 mph 1015.1mb 48f 51f
12:12 6 7 mph 1015.1mb 48f 51f
12:06 6 7 mph 1015.2mb 48f 51f
12:00 6
mph
1015.3mb 48f 51f
dom 01/25 11:54 6 7 mph 1015.3mb 48f 51f
11:48 6 7 mph 1015.3mb 48f 50f
11:36 6 7 mph 1015.4mb 48f 51f
11:30 5 7 mph 1015.3mb 48f 51f
11:24 5 7 mph 1015.5mb 48f 51f
11:18 6 7 mph 1015.6mb 48f 51f
11:12 6 7 mph 1015.6mb 48f 51f
11:06 5 6 mph 1015.7mb 48f 51f
11:00 5 7 mph 1015.9mb 48f 51f
10:54 5 6 mph 1015.9mb 48f 51f
10:48 6 7 mph 1016mb 48f 51f
10:36 6 7 mph 1016.1mb 48f 51f
10:30 6 7 mph 1016.1mb 48f 51f
10:24 5 7 mph 1016.3mb 48f 51f
10:18 6 7 mph 1016.3mb 48f 51f
10:12 6 7 mph 1016.4mb 48f 51f
10:06 6 8 mph 1016.5mb 48f 51f
10:00 6 7 mph 1016.4mb 48f 51f
9:54 6 8 mph 1016.5mb 48f 51f
9:48 6 8 mph 1016.5mb 48f 51f
9:36 5 6 mph 1016.7mb 48f 51f
9:30 5 7 mph 1016.7mb 48f 51f
9:24 5 6 mph 1016.7mb 48f 51f
9:18 3 5 mph 1016.8mb 48f 51f
9:12 3 6 mph 1016.8mb 48f 51f
9:06 5 6 mph 1016.8mb 48f 51f
9:00 3 5 mph 1016.8mb 48f 51f
8:54 3 5 mph 1017mb 48f 51f
8:48 5 6 mph 1017.1mb 48f 50f
8:36 3 7 mph 1017.2mb 48f 50f
8:30 6
mph
1017.3mb 48f 50f
8:24 5 6 mph 1017.4mb 48f 50f
8:18 3 5 mph 1017.4mb 48f 50f
8:12 3 5 mph 1017.4mb 48f 50f
8:06 5 6 mph 1017.5mb 48f 50f
8:00 5 6 mph 1017.6mb 48f 50f
7:54 3 5 mph 1017.6mb 48f 50f
7:48 3 5 mph 1017.6mb 48f 50f
7:36  -  mph 1017.7mb 48f 50f
7:30  -  3 mph 1017.7mb 48f 50f
7:24 2 3 mph 1017.6mb 48f 50f
7:18 3
mph
1017.6mb 48f 50f
7:12 3
mph
1017.6mb 48f 50f
7:06 3 5 mph 1017.7mb 48f 50f
7:00 5 6 mph 1017.8mb 48f 50f
6:54 3 5 mph 1018mb 48f 50f
6:48 2 3 mph 1018.2mb 48f 50f
6:36  -  2 mph 1018.2mb 48f 50f
6:30  -  2 mph 1018.3mb 48f 50f
6:24 1 2 mph 1018.3mb 48f 50f
6:18 2
mph
1018.3mb 48f 50f
6:12 2 3 mph 1018.4mb 48f 50f
6:06 2
mph
1018.4mb 48f 50f
6:00 3
mph
1018.4mb 48f 50f
5:54 3 6 mph 1018.5mb 48f 50f
5:48 3 5 mph 1018.4mb 48f 50f
5:36 2
mph
1018.5mb - 50f
5:30 2 5 mph 1018.4mb - 50f
5:24 3 5 mph 1018.3mb - 50f
5:18 2 3 mph 1018.4mb - 50f
5:12 2 3 mph 1018.4mb - 50f
5:06 3
mph
1018.4mb - 50f
5:00 1 3 mph 1018.4mb - 51f
4:54 3 5 mph 1018.3mb - 51f
4:48 3
mph
1018.4mb - 51f
4:36 2 5 mph 1018.4mb 48f 51f
4:30 3 5 mph 1018.4mb 48f 51f
4:24 5 6 mph 1018.4mb 48f 51f
4:18 2 5 mph 1018.7mb 48f 51f
4:12  -  1 mph 1019mb 48f 51f
4:06  -  1 mph 1019mb 48f 51f
4:00  -  1 mph 1019mb 48f 51f
3:54 2 3 mph 1019.2mb 48f 50f
3:48 2 3 mph 1019.1mb 48f 51f
3:36 3 5 mph 1019.1mb 48f 51f
3:30 2 3 mph 1019mb 48f 51f
3:24 2
mph
1019mb 48f 51f
3:18 2 3 mph 1019.1mb 48f 51f
3:12 2 3 mph 1019.2mb 48f 51f
3:06 2 3 mph 1019.2mb 48f 51f
3:00 2 5 mph 1019.3mb 48f 51f
2:54 5
mph
1019.3mb 48f 50f
2:48 2 3 mph 1019.2mb 48f 50f
2:36 3
mph
1019.3mb 48f 50f
2:30 3 6 mph 1019.4mb 48f 51f
2:24 6 7 mph 1019.5mb 48f 51f
2:18 6
mph
1019.7mb 48f 51f
2:12 6 7 mph 1019.9mb 48f 52f
2:06 7 8 mph 1020mb 48f 52f
2:00 7 8 mph 1020.1mb 48f 52f
1:54 6 7 mph 1020.1mb 48f 52f
1:48 5 6 mph 1020.2mb 48f 52f
1:36 6 7 mph 1020.4mb 48f 51f
1:30 7 9 mph 1020.3mb 48f 51f
1:24 9
mph
1020.3mb 48f 50f
1:18 8 9 mph 1020.3mb 48f 50f
1:12 7 8 mph 1020.4mb 48f 51f
1:06 6
mph
1020.4mb 48f 50f
1:00 5 6 mph 1020.4mb 48f 50f
12:54 5 6 mph 1020.5mb 48f 51f
12:48 3 5 mph 1020.6mb 48f 50f
12:36 5
mph
1020.7mb 48f 50f
12:30 3 5 mph 1020.7mb 48f 50f
12:24 3 5 mph 1020.8mb 48f 50f
12:18 5 6 mph 1020.8mb 48f 50f
12:12 6
mph
1020.8mb 48f 50f
12:06 6 7 mph 1020.9mb 48f 50f
12:00 6 7 mph 1021mb 48f 50f
11:54 6 7 mph 1021mb 48f 50f
11:48 6 7 mph 1021mb 48f 49f
11:36 6 7 mph 1021.2mb 48f 49f
11:30 6 8 mph 1021.2mb 48f 49f
11:24 7 9 mph 1021.3mb 48f 49f
11:18 7 8 mph 1021.2mb 48f 49f
11:12 8 10 mph 1021.2mb 48f 49f
11:06 9 11 mph 1021.2mb 48f 49f
11:00 7 10 mph 1021.2mb 48f 50f
10:54 5 6 mph 1021.1mb 48f 50f
10:48 5 6 mph 1021.1mb 48f 50f
10:36 5 6 mph 1021.2mb 48f 49f
10:30 3 5 mph 1021.2mb 48f 50f
10:24 3 5 mph 1021.1mb 48f 50f
10:18 2 3 mph 1021.1mb 48f 50f
10:12 2 3 mph 1021mb 48f 50f
10:06 1 5 mph 1021mb 48f 51f
10:00 2 3 mph 1021mb 48f 51f
9:54 2 3 mph 1020.9mb 48f 51f
9:48 1 2 mph 1020.9mb 48f 51f
9:36  -  mph 1020.9mb 48f 51f
9:30  -  1 mph 1020.9mb 48f 51f
9:24 1 2 mph 1021mb 48f 51f
9:18  -  2 mph 1021mb 48f 51f
9:12 2 5 mph 1021mb 48f 51f
9:06 3 6 mph 1020.9mb 48f 51f
9:00 5 6 mph 1020.9mb 48f 50f
8:54 5 7 mph 1020.8mb 48f 50f
8:48 5 8 mph 1020.7mb 48f 50f
8:36 5 7 mph 1020.8mb 48f 50f
8:30 5 6 mph 1020.8mb 48f 50f
8:24 5 6 mph 1020.9mb 48f 50f
8:18 1 2 mph 1021mb 48f 51f
8:12  -  1 mph 1021.1mb 48f 51f
8:06 1 2 mph 1021.1mb 48f 51f
8:00 2
mph
1021.2mb 48f 51f
7:54 1 2 mph 1021.3mb 48f 51f
7:48 2 3 mph 1021.3mb 48f 51f
7:36 2 3 mph 1021.5mb 48f 51f
7:30 2 3 mph 1021.6mb 48f 51f
7:24 2 3 mph 1021.6mb 48f 51f
7:18 2 3 mph 1021.6mb 48f 51f
7:12 1 3 mph 1021.7mb 48f 51f
7:06 3 5 mph 1021.8mb 48f 51f
7:00 3 5 mph 1021.8mb 48f 51f
6:54 3 6 mph 1021.9mb 48f 51f
6:48 3 5 mph 1021.9mb 48f 51f
6:36 5 6 mph 1022mb 48f 52f
6:30 5
mph
1022mb 48f 51f
6:24 2
mph
1022.1mb 48f 51f
6:18  -  2 mph 1022.2mb 48f 52f
6:12 2 3 mph 1022.2mb 48f 52f
6:06 2 3 mph 1022.1mb 48f 52f
6:00  -  3 mph 1022.3mb 48f 52f
5:54 3 5 mph 1022.2mb 48f 51f
5:48 5 6 mph 1022.1mb 48f 52f
5:36 5 6 mph 1022.3mb 48f 51f
5:30 3 5 mph 1022.1mb 48f 52f
5:24 2 3 mph 1022.1mb 48f 52f
5:18 2 3 mph 1022mb 48f 52f
5:12 2 3 mph 1022mb 48f 52f
5:06 1 2 mph 1022.1mb 48f 52f
5:00  -  2 mph 1022.1mb 48f 52f
4:54 1 3 mph 1022mb 48f 52f
4:48 3
mph
1021.9mb 48f 52f
4:36 1 2 mph 1022.2mb 48f 52f
4:30 1 2 mph 1022.3mb 48f 52f
4:24  -  2 mph 1022.3mb 48f 52f
4:18 1 3 mph 1022.3mb 48f 52f
4:12 2 3 mph 1022.2mb 48f 52f
4:06 3
mph
1022.2mb 48f 52f
4:00 2 3 mph 1022.4mb 48f 52f
3:54 3
mph
1022.5mb 48f 52f
3:48 2 3 mph 1022.5mb 48f 52f
3:36 2
mph
1022.7mb 48f 52f
3:30 1 3 mph 1022.7mb 48f 52f
3:24 2 3 mph 1022.6mb 48f 52f
3:18 2 3 mph 1022.4mb 48f 52f
3:12 3 5 mph 1022.6mb 48f 53f
3:06 3 5 mph 1022.6mb 48f 53f
3:00 2 3 mph 1022.6mb 48f 53f
2:54 2
mph
1022.5mb 48f 53f
2:48 1 2 mph 1022.6mb 48f 53f
2:36 2 3 mph 1022.5mb 48f 53f
2:30 2 5 mph 1022.5mb 48f 53f
2:24 1 5 mph 1022.5mb 48f 53f
2:18 3 7 mph 1022.5mb 48f 53f
2:12 5 6 mph 1022.7mb 48f 53f
2:06 3 6 mph 1022.4mb 48f 53f
2:00 5 7 mph 1022.4mb 48f 53f
1:54 3 7 mph 1022.2mb 48f 53f
1:48 5 7 mph 1022.7mb 48f 53f
1:36 5 7 mph 1022.5mb 48f 53f
1:30 5 8 mph 1022.7mb 48f 53f
1:24 3 7 mph 1022.9mb 48f 53f
1:18 6 9 mph 1022.8mb 48f 53f
1:12 6 8 mph 1023mb 48f 53f
1:06 5 8 mph 1023mb 48f 53f
1:00 6 8 mph 1022.8mb 48f 53f
12:54 6 8 mph 1022.8mb 48f 53f
12:48 5 7 mph 1022.9mb 48f 53f
12:36 7 9 mph 1022.9mb 48f 53f
12:30 7 10 mph 1022.9mb 48f 53f
12:24 7 11 mph 1023mb 48f 53f
12:18 6 7 mph 1022.9mb 48f 53f
12:12 2 5 mph 1022.5mb 48f 53f
12:06 2 5 mph 1022mb 48f 53f
12:00 3 5 mph 1021.9mb 48f 53f
sáb 01/24 11:54 3 5 mph 1022.5mb 48f 53f
11:48 2 5 mph 1023.1mb 48f 53f
11:36 3 6 mph 1022.6mb 48f 53f
11:30 7 11 mph 1023.3mb 48f 53f
11:24 8 13 mph 1023.6mb 48f 54f
11:18 7 13 mph 1023.6mb 48f 53f
11:12 10 14 mph 1023.6mb 48f 53f
11:06 6 9 mph 1023.1mb 48f 53f
11:00 5 7 mph 1022.4mb 48f 53f
10:54 5 9 mph 1022.2mb 48f 53f
10:48 7 9 mph 1022.9mb 48f 53f
10:36 7 8 mph 1022.7mb 48f 52f
10:30 5 6 mph 1022.2mb 48f 53f
10:24 2 3 mph 1021.8mb 48f 53f
10:18 2 3 mph 1021.7mb 48f 53f
10:12 2 5 mph 1021.6mb 48f 53f
10:06 3 6 mph 1021.7mb 48f 53f
10:00 3 6 mph 1022mb 48f 53f
9:54 3 5 mph 1022mb 48f 53f
9:48 5 7 mph 1022.5mb 48f 53f
9:36 8 11 mph 1022.7mb 48f 53f
9:30 3 6 mph 1022.5mb 48f 54f
9:24 3 7 mph 1022.3mb 48f 54f
9:18 8 10 mph 1022.4mb 48f 53f
9:12 10 14 mph 1022.6mb 48f 54f
9:06 11 15 mph 1022.8mb 48f 54f
9:00 8 11 mph 1023mb 48f 54f
8:54 5 8 mph 1022.5mb 48f 54f
8:48 6 10 mph 1022.1mb 48f 54f
8:36 9 13 mph 1022.1mb 48f 54f
8:30 6 10 mph 1022.1mb 48f 54f
8:24 2 7 mph 1022mb 48f 54f
8:18 6 11 mph 1022.1mb 48f 54f
8:12 3 9 mph 1021.9mb 48f 54f
8:06 3 7 mph 1021.9mb 48f 54f
8:00 7 13 mph 1022.6mb 48f 54f
7:54 5 7 mph 1022.7mb 48f 54f
7:48 2
mph
1022.3mb 48f 54f
7:36 2 5 mph 1021.7mb 48f 54f
7:30 5 8 mph 1021.9mb 48f 54f
7:24 2 10 mph 1022mb 48f 54f
7:18 5 8 mph 1022.4mb 48f 54f
7:12 7 10 mph 1022.7mb 48f 54f
7:06 5 7 mph 1022.5mb 48f 54f
7:00 6 8 mph 1022.4mb 48f 54f
6:54 2 3 mph 1022.3mb 48f 54f
6:48 3 5 mph 1022mb 48f 54f
6:36 3 6 mph 1022.3mb 48f 54f
6:30 3 5 mph 1022.4mb 48f 54f
6:24 2 3 mph 1022.4mb 48f 53f
6:18 3 5 mph 1022.5mb 48f 53f
6:12 2 5 mph 1022.7mb 48f 53f
6:06 2 3 mph 1022.7mb 48f 53f
6:00 1 3 mph 1022.6mb 48f 52f
5:54 1 2 mph 1022.6mb 48f 52f
5:48 1 2 mph 1022.7mb 48f 52f
5:36 1 3 mph 1022.7mb 48f 52f
5:30 3 6 mph 1022.6mb 48f 51f
5:24 3 7 mph 1022.5mb 48f 51f
5:18 6 7 mph 1022.7mb 48f 51f
5:12 2 5 mph 1022.6mb 48f 50f
5:06 5
mph
1022.4mb 48f 50f
5:00 5 7 mph 1022.5mb 48f 51f
4:54 5 6 mph 1022.3mb 48f 51f
4:48 1 2 mph 1022.2mb 48f 51f
4:36  -  1 mph 1022.2mb 48f 51f
4:30  -  mph 1022.3mb 48f 52f
4:24  -  1 mph 1022.3mb 48f 52f
4:18  -  6 mph 1022.5mb 48f 51f
4:12 5 6 mph 1022.6mb 48f 51f
4:06 7 8 mph 1022.6mb 48f 51f
4:00 6 9 mph 1022.7mb 48f 51f
3:54 7 8 mph 1022.6mb 48f 51f
3:48 6 8 mph 1022.6mb 48f 51f
3:36 2 3 mph 1022.5mb 48f 51f
3:30 2 6 mph 1022.6mb 48f 51f
3:24 3 6 mph 1022.7mb 48f 51f
3:18 5 7 mph 1022.9mb 48f 50f
3:12 6 7 mph 1022.9mb 48f 50f
3:06 3 7 mph 1023mb 48f 50f
3:00 5 7 mph 1023mb 48f 50f
2:54 5 6 mph 1023.2mb 48f 50f
2:48 3 5 mph 1023mb 48f 50f
2:36 2
mph
1022.8mb 48f 50f
2:30 1 2 mph 1023mb 48f 50f
2:24 2 3 mph 1023mb 48f 50f
2:18 2 3 mph 1023mb 48f 50f
2:12 3 5 mph 1022.8mb 48f 51f
2:06 1
mph
1022.9mb 48f 51f
2:00 1 2 mph 1022.9mb 48f 51f
1:54 2
mph
1023.2mb 48f 51f
1:48 2
mph
1023.2mb 48f 51f
1:36 2
mph
1023.5mb 48f 51f
1:30 1 2 mph 1023.6mb 48f 51f
1:24  -  1 mph 1023.5mb 48f 52f
1:18  -  3 mph 1023.9mb 48f 51f
1:12 1 2 mph 1023.9mb 48f 51f
1:06 2
mph
1024mb 48f 50f
1:00 2
mph
1024.1mb 48f 51f
12:54  -  1 mph 1023.9mb 48f 51f
12:48 1 2 mph 1023.8mb 48f 50f
12:36  -  2 mph 1024mb 48f 51f
12:30 2
mph
1023.9mb 48f 51f
12:24 1 3 mph 1024.1mb 48f 51f
12:18 3
mph
1023.9mb 48f 51f
12:12 2
mph
1023.9mb 48f 51f
12:06 1 2 mph 1024.1mb 48f 50f
12:00 1 2 mph 1024.2mb 48f 51f
11:54  -  1 mph 1024.1mb 48f 51f
11:48 1 3 mph 1024mb 48f 51f
11:36  -  2 mph 1024.3mb 48f 51f
11:30  -  3 mph 1024.4mb 48f 50f
11:24 3 5 mph 1024.7mb 48f 50f
11:18 3 5 mph 1024.6mb 48f 50f
11:12 1 2 mph 1024.4mb 48f 50f
11:06 2 3 mph 1024.4mb 48f 50f
11:00  -  2 mph 1024.4mb 48f 50f
10:54  -  1 mph 1024.2mb 48f 51f
10:48 2
mph
1024.5mb 48f 50f
10:36  -  2 mph 1024.1mb 48f 52f
10:30  -  2 mph 1024.3mb 48f 51f
10:24 1 2 mph 1024.4mb 48f 51f
10:18  -  1 mph 1024.3mb 48f 51f
10:12  -  1 mph 1024.3mb 48f 51f
10:06  -  2 mph 1024.2mb 48f 50f
10:00 1 2 mph 1024.2mb 48f 51f
9:54  -  1 mph 1024.3mb 48f 51f
9:48  -  2 mph 1024.4mb 48f 50f
9:36 5
mph
1024.5mb 48f 49f
9:30 2 3 mph 1024.2mb 48f 49f
9:24 2 3 mph 1024.2mb 48f 50f
9:18 1 3 mph 1024.2mb 48f 51f
9:12 1 3 mph 1024.3mb 48f 51f
9:06 2 5 mph 1024.2mb 48f 52f
9:00 5
mph
1024.4mb 48f 51f
8:54 2 6 mph 1024.3mb 48f 51f
8:48 5 6 mph 1024.2mb 48f 51f
8:36 5 7 mph 1024.7mb 48f 50f
8:30 1 2 mph 1024.7mb 48f 50f
8:24 2 3 mph 1024.8mb 48f 51f
8:18 2 3 mph 1024.7mb 48f 51f
8:12 1 3 mph 1024.6mb 48f 51f
8:06 3 6 mph 1024.6mb 48f 50f
8:00 5
mph
1024.3mb 48f 51f
7:54 3 5 mph 1024.1mb 48f 50f
7:48 3
mph
1024mb 48f 50f
7:36 1 2 mph 1023.8mb 48f 49f
7:30  -  1 mph 1023.8mb 48f 49f
7:24  -  1 mph 1023.9mb 48f 49f
7:18  -  2 mph 1024mb 48f 49f
7:12 1
mph
1023.9mb 48f 50f
7:06 1 2 mph 1023.8mb 48f 50f
7:00  -  1 mph 1023.9mb 48f 51f
6:54  -  2 mph 1023.9mb 48f 51f
6:48 2 5 mph 1024.1mb 48f 51f
6:36 3 5 mph 1024.2mb 48f 50f
6:30 5
mph
1024.4mb 48f 50f
6:24 2 3 mph 1024.4mb 48f 50f
6:18 2 3 mph 1024.5mb 48f 50f
6:12 2 3 mph 1024.8mb 48f 50f
6:06 2 3 mph 1025mb 48f 50f
6:00 3 5 mph 1024.9mb 48f 50f
5:54 5
mph
1024.8mb 48f 50f
5:48 3
mph
1024.7mb 48f 50f
5:36 3 5 mph 1024.9mb 48f 50f
5:30 3 5 mph 1025.1mb 48f 50f
5:24 3 5 mph 1025.1mb 48f 50f
5:18 2 3 mph 1025.1mb 48f 50f
5:12 3 5 mph 1025.1mb 48f 50f
5:06 3 6 mph 1025.1mb 48f 49f
5:00 3 5 mph 1025.1mb 48f 49f
4:54 3 5 mph 1025mb 48f 49f
4:48 3
mph
1024.9mb 48f 49f
4:36  -  2 mph 1025.1mb 48f 50f
4:30  -  3 mph 1025.1mb 48f 49f
4:24 2 3 mph 1025.1mb 48f 50f
4:18 1 2 mph 1024.8mb 48f 50f
4:12 1 3 mph 1024.8mb 48f 50f
4:06 3 5 mph 1025mb 48f 51f
4:00 2 3 mph 1024.9mb 48f 51f
3:54 2 5 mph 1024.8mb 48f 50f
3:48 3 5 mph 1024.8mb 48f 50f
3:36 3 5 mph 1024.9mb 48f 50f
3:30 3 5 mph 1025mb 48f 51f
3:24 2 6 mph 1025mb 48f 51f
3:18 6 7 mph 1025mb 48f 51f
3:12 6 7 mph 1025.1mb 48f 51f
3:06 5 6 mph 1025.1mb 48f 50f
3:00 6 7 mph 1025.3mb 48f 51f
2:54 6 7 mph 1025.4mb 48f 51f
2:48 6 7 mph 1025.5mb 48f 51f
1:36 2 3 mph 1024.5mb 48f 51f
1:30 2 6 mph 1024.5mb 48f 51f
1:24 6 10 mph 1024.3mb 48f 51f
1:18 9 11 mph 1024.3mb 48f 52f
1:12 6 10 mph 1024.1mb 48f 52f
1:06 2 5 mph 1024.2mb 48f 51f
1:00 3 6 mph 1024.2mb 48f 51f
12:54 2 6 mph 1024.3mb 48f 52f
12:48 3 5 mph 1024.4mb 48f 51f
12:36 5 7 mph 1024.1mb 48f 51f
12:30 2 5 mph 1024.1mb 48f 51f
12:24 1 2 mph 1024.2mb 48f 52f
12:18 2 5 mph 1024mb 48f 52f
12:12 6 7 mph 1023.9mb 48f 52f
12:06 3 6 mph 1024.1mb 48f 52f
12:00 3 5 mph 1023.9mb 48f 51f
vie 01/23 11:54 3 6 mph 1024.1mb 48f 51f
11:48 5 6 mph 1024mb 48f 51f
11:36 3 5 mph 1024.4mb 48f 51f
11:30 3 5 mph 1024.3mb 48f 51f
11:24 6 8 mph 1024.3mb 48f 51f
11:18 6 10 mph 1024.4mb 48f 50f
11:12 6
mph
1024.4mb 48f 49f
11:06 2 6 mph 1024.5mb 48f 50f
11:00 3 6 mph 1024.4mb 48f 50f
10:54 5 6 mph 1024.1mb 48f 50f
10:48 5 7 mph 1024mb 48f 50f
10:36 7 8 mph - 48f 50f
10:30 6 7 mph - 48f 50f
10:24 6 9 mph - 48f 51f
10:18 6 8 mph - 48f 50f
10:12 8 9 mph - 48f 50f
10:06 7 9 mph - 48f 51f
10:00 6 7 mph - 48f 51f
9:54 5 6 mph - 48f 51f
9:48 3 6 mph - 48f 51f
9:36 6 7 mph 1022.3mb 48f 52f
9:30 6 9 mph 1022.2mb 48f 52f
9:24 3 6 mph 1022.2mb 48f 52f
9:18 5 8 mph 1022.1mb 48f 51f
9:12 5 6 mph 1022.1mb 48f 50f
9:06 3 6 mph 1022.3mb 48f 49f
9:00 1 3 mph 1022.3mb 48f 50f
8:54 3 5 mph 1022.3mb 48f 50f
8:48 3 5 mph 1022.4mb 48f 50f
8:36 1 6 mph 1022.3mb 48f 49f
8:30 3 6 mph 1022.2mb 48f 49f
8:24 5 7 mph 1022.2mb 48f 49f
8:18 6 9 mph 1022.1mb 48f 49f
8:12 8 10 mph 1022.1mb 48f 49f
8:06 7 9 mph 1022.3mb 48f 48f
8:00 5 6 mph 1022.7mb 48f 48f
7:54 5 8 mph 1022.5mb 48f 48f
7:48 7 9 mph 1022.1mb 48f 48f
7:36 8 13 mph 1022.1mb 48f -
7:30 7 9 mph 1021.7mb 48f -
7:24  -  5 mph 1021.5mb 48f -
7:18 3 6 mph 1021.3mb 48f -
7:12 3 5 mph 1021.4mb 48f -
7:06 2 3 mph 1021.5mb 48f -
7:00 2 3 mph 1021.4mb 48f -
6:54  -  3 mph 1021.4mb 48f -
6:48 2 8 mph 1021.4mb 48f -
6:36 3 7 mph 1021.3mb 48f 48f
6:30 5 6 mph 1021.5mb 48f 48f
6:24 2 6 mph 1021.6mb 48f 48f
6:18 3 5 mph 1021.6mb 48f 48f
6:12 3 5 mph 1021.9mb 48f 48f
6:06  -  2 mph 1021.9mb 48f 48f
6:00 3 7 mph 1022mb 48f 48f
5:54  -  3 mph 1021.8mb 48f 49f
5:48 2 3 mph 1021.7mb 48f 49f
5:36 3 6 mph 1021.8mb 48f 49f
5:30  -  3 mph 1021.7mb 48f 49f
5:24 2 3 mph 1021.4mb 48f 49f
5:18 1 6 mph 1021.3mb 48f 49f
5:12 5 6 mph 1021.3mb 48f 50f
5:06  -  3 mph 1021.1mb 48f 51f
5:00 3 6 mph 1021.1mb 48f 51f
4:54 1 5 mph 1021.4mb 48f 53f
4:48 7 8 mph 1021.1mb 48f 53f
4:36 6 10 mph 1021.6mb 48f 52f
4:30 7 8 mph 1021.7mb 48f 51f
4:24 5 7 mph 1021.9mb 48f 51f
4:18 5 6 mph 1022.2mb 48f 50f
4:12 3
mph
1022.4mb 48f 49f
4:06 2 5 mph 1022.4mb 48f 49f
4:00  -  2 mph 1022.5mb 48f 49f
3:54 2
mph
1022.5mb 48f 49f
3:48 1 2 mph 1022mb 48f 49f
3:36 2 3 mph 1022mb 48f 49f
3:30 2
mph
1022mb 48f 49f
3:24 1 2 mph 1022.2mb 48f 49f
3:18 2 3 mph 1022.2mb 48f 49f
3:12 3 5 mph 1022.3mb 48f 49f
3:06 1 2 mph 1022.3mb 48f 49f
3:00 2 5 mph 1022.3mb 48f 49f
2:54 3 5 mph 1022.4mb 48f 48f
2:48 2
mph
1022.5mb 48f 49f
2:36 2 5 mph 1022.3mb 48f 49f
2:30 5 6 mph 1022.2mb 48f 49f
2:24 6 7 mph 1021.9mb 48f 49f